Dorset, MN

1:09 PM CDT on July 23, 2014 (GMT -0500)
Park Rapids Municipal (KPKD) Elev 1440 ft | 46.90 °N, 95.07 °W | Change Station

Current weather conditions updated 16 minutes ago

Clear
Clear
73 °F
Feels Like 73 °F
N
5
Wind Variable Wind from North

Today is forecast to be Cooler than yesterday.

Today
High -- | Low -- °F
--% Chance of Precip.
Yesterday
High -- | Low -- °F
Precip. -- in
5:49 AM 9:03 PM
Waning Crescent, 9% visible
Pressure 30.27 in
Visibility 10.0 miles
Clouds Clear
Dew Point 53 °F
Humidity 49%
Rainfall 0.00 in
Snow Depth Not available.
UV 10 out of 12
Pollen 6.20 out of 12
Air Quality Not available.
Flu Activity Not available.
METAR KPKD 231753Z AUTO 01004KT 10SM CLR 23/12 A3027 RMK AO2 SLP250 T02280117 10233 20128 58005 TSNO

More Conditions Fewer Conditions

Pressure 30.27 in
Visibility 10.0 miles
Clouds Clear
Dew Point 53 °F
Humidity 49%
Rainfall 0.00 in
Snow Depth Not available.
UV 10 out of 12
Pollen 6.20 out of 12
Air Quality Not available.
Flu Activity Not available.
METAR KPKD 231753Z AUTO 01004KT 10SM CLR 23/12 A3027 RMK AO2 SLP250 T02280117 10233 20128 58005 TSNO

More Conditions Fewer Conditions

10-Day Weather Forecast

Almanac

Astronomy

Jul. 23, 2014 Rise Set
Actual Time 5:49 AM CDT 9:03 PM CDT
Civil Twilight 5:12 AM CDT 9:40 PM CDT
Nautical Twilight 4:24 AM CDT 10:27 PM CDT
Astronomical Twilight 3:23 AM CDT 11:27 PM CDT
Moon 3:10 AM CDT 6:31 PM CDT
Length of Visible Light 16h 27m
Length of Day
15h 14m
Tomorrow will be 2m 14s shorter.
Waning Crescent, 9% of the Moon is Illuminated
Today
Waning Crescent
Jul 26
New
Aug 3
First Quarter
Aug 10
Full
Aug 17
Last Quarter

Today's Extremes

State Highs State Lows

Community

WunderPhotos

Upload Photos

1,736,692 photos uploaded!

Nearby

Snow Depth

Station Depth Elevation
No new snow has been reported.

Earthquake Activity

City Distance Mag. Time & Date
No recent earthquake activity has been reported nearby.
Minimum magnitude displayed is 2.5.

Coastal Water Temperatures

Place Temperature
No Stations Reporting

Nearby Weather Stations

Station Location Temp. Heat Index Dew Point Humidity Wind Precip. Elev Updated Type
Bad Medicine Lake, MN, Ponsford, MN 71.2 °F 76 °F 57 °F 60% NW  at  4.0 mph 0.00 in / hr 1630 ft 1:01 PM CDT Normal
Ten Mile Lake, Hackensack, MN 71.2 °F 75 °F 60 °F 67% NE  at  0.0 mph 0.00 in / hr 1352 ft 12:59 PM CDT Normal
May Creek Lodge, Walker, MN 73.8 °F 77 °F 60 °F 61% East  at  1.8 mph 0.00 in / hr 1329 ft 1:09 PM CDT Rapid Fire
LEECH LAKE TV, Walker, MN 76.8 °F 79 °F 62 °F 60% East  at  7.0 mph 0.00 in / hr 1484 ft 1:02 PM CDT Normal

Show More Stations Show Fewer Stations